sensor_id;sensor_type;location;lat;lon;timestamp;pressure;altitude;pressure_sealevel;temperature;humidity
8653;BME280;4364;52.426;9.424;2023-07-02T00:02:24;100030.34;;;15.20;100.00
8653;BME280;4364;52.426;9.424;2023-07-02T00:04:51;100035.66;;;15.16;100.00
8653;BME280;4364;52.426;9.424;2023-07-02T00:07:18;100038.06;;;15.18;100.00
8653;BME280;4364;52.426;9.424;2023-07-02T00:09:44;100041.78;;;15.05;100.00
8653;BME280;4364;52.426;9.424;2023-07-02T00:12:11;100038.91;;;15.01;100.00
8653;BME280;4364;52.426;9.424;2023-07-02T00:14:37;100025.84;;;14.98;100.00
8653;BME280;4364;52.426;9.424;2023-07-02T00:17:04;100027.66;;;14.85;100.00
8653;BME280;4364;52.426;9.424;2023-07-02T00:19:30;100022.97;;;14.86;100.00
8653;BME280;4364;52.426;9.424;2023-07-02T00:21:57;100019.75;;;14.84;100.00
8653;BME280;4364;52.426;9.424;2023-07-02T00:24:24;100030.84;;;14.78;100.00
8653;BME280;4364;52.426;9.424;2023-07-02T00:26:51;100026.97;;;14.71;100.00
8653;BME280;4364;52.426;9.424;2023-07-02T00:29:17;100014.91;;;14.72;100.00
8653;BME280;4364;52.426;9.424;2023-07-02T00:31:44;100018.94;;;14.74;100.00
8653;BME280;4364;52.426;9.424;2023-07-02T00:34:10;100025.19;;;14.66;100.00
8653;BME280;4364;52.426;9.424;2023-07-02T00:36:37;100021.81;;;14.60;100.00
8653;BME280;4364;52.426;9.424;2023-07-02T00:39:03;100020.53;;;14.67;100.00
8653;BME280;4364;52.426;9.424;2023-07-02T00:41:30;100019.22;;;14.55;100.00
8653;BME280;4364;52.426;9.424;2023-07-02T00:43:56;100020.66;;;14.53;100.00
8653;BME280;4364;52.426;9.424;2023-07-02T00:46:23;100011.81;;;14.47;100.00
8653;BME280;4364;52.426;9.424;2023-07-02T00:48:54;100023.69;;;14.51;100.00
8653;BME280;4364;52.426;9.424;2023-07-02T00:51:26;100010.81;;;14.43;100.00
8653;BME280;4364;52.426;9.424;2023-07-02T00:53:55;100010.50;;;14.53;100.00
8653;BME280;4364;52.426;9.424;2023-07-02T00:56:25;100007.13;;;14.48;100.00
8653;BME280;4364;52.426;9.424;2023-07-02T00:58:55;100010.03;;;14.42;100.00
8653;BME280;4364;52.426;9.424;2023-07-02T01:01:26;100007.91;;;14.39;100.00
8653;BME280;4364;52.426;9.424;2023-07-02T01:04:03;100009.69;;;14.35;100.00
8653;BME280;4364;52.426;9.424;2023-07-02T01:06:33;100006.97;;;14.35;100.00
8653;BME280;4364;52.426;9.424;2023-07-02T01:09:04;100004.69;;;14.37;100.00
8653;BME280;4364;52.426;9.424;2023-07-02T01:11:40;100008.41;;;14.41;100.00
8653;BME280;4364;52.426;9.424;2023-07-02T01:14:13;100011.13;;;14.33;100.00
8653;BME280;4364;52.426;9.424;2023-07-02T01:16:42;100011.59;;;14.35;100.00
8653;BME280;4364;52.426;9.424;2023-07-02T01:19:19;100007.91;;;14.39;100.00
8653;BME280;4364;52.426;9.424;2023-07-02T01:21:48;100012.44;;;14.44;100.00
8653;BME280;4364;52.426;9.424;2023-07-02T01:24:17;100012.13;;;14.37;100.00
8653;BME280;4364;52.426;9.424;2023-07-02T01:26:44;100012.44;;;14.35;100.00
8653;BME280;4364;52.426;9.424;2023-07-02T01:29:20;100014.97;;;14.23;100.00
8653;BME280;4364;52.426;9.424;2023-07-02T01:31:47;100019.94;;;14.21;100.00
8653;BME280;4364;52.426;9.424;2023-07-02T01:34:14;100021.56;;;14.22;100.00
8653;BME280;4364;52.426;9.424;2023-07-02T01:36:41;100016.72;;;14.19;100.00
8653;BME280;4364;52.426;9.424;2023-07-02T01:39:08;100018.84;;;14.31;100.00
8653;BME280;4364;52.426;9.424;2023-07-02T01:41:54;100014.34;;;14.35;100.00
8653;BME280;4364;52.426;9.424;2023-07-02T01:44:21;100017.53;;;14.28;100.00
8653;BME280;4364;52.426;9.424;2023-07-02T01:46:48;100015.63;;;14.29;100.00
8653;BME280;4364;52.426;9.424;2023-07-02T01:49:16;100012.59;;;14.30;100.00
8653;BME280;4364;52.426;9.424;2023-07-02T01:51:51;100015.31;;;14.30;100.00
8653;BME280;4364;52.426;9.424;2023-07-02T01:54:19;100007.28;;;14.51;100.00
8653;BME280;4364;52.426;9.424;2023-07-02T01:56:46;100012.13;;;14.45;100.00
8653;BME280;4364;52.426;9.424;2023-07-02T01:59:13;100009.38;;;14.45;100.00
8653;BME280;4364;52.426;9.424;2023-07-02T02:01:40;100006.50;;;14.51;100.00
8653;BME280;4364;52.426;9.424;2023-07-02T02:04:07;100009.69;;;14.44;100.00
8653;BME280;4364;52.426;9.424;2023-07-02T02:06:35;100010.19;;;14.46;100.00
8653;BME280;4364;52.426;9.424;2023-07-02T02:09:02;100013.91;;;14.50;100.00
8653;BME280;4364;52.426;9.424;2023-07-02T02:11:31;100010.34;;;14.50;100.00
8653;BME280;4364;52.426;9.424;2023-07-02T02:13:58;100017.59;;;14.54;100.00
8653;BME280;4364;52.426;9.424;2023-07-02T02:16:28;100007.94;;;14.48;100.00
8653;BME280;4364;52.426;9.424;2023-07-02T02:18:55;100017.28;;;14.47;100.00
8653;BME280;4364;52.426;9.424;2023-07-02T02:21:22;100013.44;;;14.57;100.00
8653;BME280;4364;52.426;9.424;2023-07-02T02:23:48;100020.66;;;14.53;100.00
8653;BME280;4364;52.426;9.424;2023-07-02T02:26:15;100016.59;;;14.41;100.00
8653;BME280;4364;52.426;9.424;2023-07-02T02:28:42;100018.72;;;14.44;100.00
8653;BME280;4364;52.426;9.424;2023-07-02T02:31:08;100016.59;;;14.41;100.00
8653;BME280;4364;52.426;9.424;2023-07-02T02:33:35;100018.72;;;14.53;100.00
8653;BME280;4364;52.426;9.424;2023-07-02T02:36:03;100024.56;;;14.60;100.00
8653;BME280;4364;52.426;9.424;2023-07-02T02:38:30;100023.41;;;14.61;100.00
8653;BME280;4364;52.426;9.424;2023-07-02T02:41:00;100032.78;;;14.60;100.00
8653;BME280;4364;52.426;9.424;2023-07-02T02:43:32;100024.88;;;14.59;100.00
8653;BME280;4364;52.426;9.424;2023-07-02T02:45:58;100032.13;;;14.63;100.00
8653;BME280;4364;52.426;9.424;2023-07-02T02:48:26;100031.94;;;14.60;100.00
8653;BME280;4364;52.426;9.424;2023-07-02T02:50:52;100028.25;;;14.73;100.00
8653;BME280;4364;52.426;9.424;2023-07-02T02:53:19;100033.59;;;14.78;100.00
8653;BME280;4364;52.426;9.424;2023-07-02T02:55:46;100035.66;;;14.73;100.00
8653;BME280;4364;52.426;9.424;2023-07-02T02:58:12;100041.13;;;14.81;100.00
8653;BME280;4364;52.426;9.424;2023-07-02T03:00:38;100032.63;;;14.74;100.00
8653;BME280;4364;52.426;9.424;2023-07-02T03:03:08;100035.66;;;14.81;100.00
8653;BME280;4364;52.426;9.424;2023-07-02T03:05:35;100025.22;;;14.84;100.00
8653;BME280;4364;52.426;9.424;2023-07-02T03:08:02;100026.19;;;14.79;100.00
8653;BME280;4364;52.426;9.424;2023-07-02T03:10:28;100031.97;;;14.77;100.00
8653;BME280;4364;52.426;9.424;2023-07-02T03:12:55;100032.28;;;14.93;100.00
8653;BME280;4364;52.426;9.424;2023-07-02T03:15:22;100026.97;;;14.88;100.00
8653;BME280;4364;52.426;9.424;2023-07-02T03:17:49;100024.41;;;14.83;100.00
8653;BME280;4364;52.426;9.424;2023-07-02T03:20:15;100022.47;;;14.92;100.00
8653;BME280;4364;52.426;9.424;2023-07-02T03:22:43;100026.66;;;14.81;100.00
8653;BME280;4364;52.426;9.424;2023-07-02T03:25:10;100027.97;;;14.84;100.00
8653;BME280;4364;52.426;9.424;2023-07-02T03:27:36;100017.97;;;14.79;100.00
8653;BME280;4364;52.426;9.424;2023-07-02T03:30:04;100025.38;;;14.78;100.00
8653;BME280;4364;52.426;9.424;2023-07-02T03:32:30;100017.31;;;14.73;100.00
8653;BME280;4364;52.426;9.424;2023-07-02T03:34:57;100024.06;;;14.93;100.00
8653;BME280;4364;52.426;9.424;2023-07-02T03:37:23;100026.19;;;14.79;100.00
8653;BME280;4364;52.426;9.424;2023-07-02T03:39:50;100027.13;;;14.74;100.00
8653;BME280;4364;52.426;9.424;2023-07-02T03:42:16;100012.97;;;14.72;100.00
8653;BME280;4364;52.426;9.424;2023-07-02T03:44:43;100006.53;;;14.68;100.00
8653;BME280;4364;52.426;9.424;2023-07-02T03:47:11;100017.00;;;14.66;100.00
8653;BME280;4364;52.426;9.424;2023-07-02T03:49:39;100029.56;;;14.76;100.00
8653;BME280;4364;52.426;9.424;2023-07-02T03:52:06;100036.47;;;14.73;100.00
8653;BME280;4364;52.426;9.424;2023-07-02T03:54:32;100035.50;;;14.78;100.00
8653;BME280;4364;52.426;9.424;2023-07-02T03:56:59;100029.56;;;14.85;100.00
8653;BME280;4364;52.426;9.424;2023-07-02T03:59:25;100039.06;;;14.78;100.00
8653;BME280;4364;52.426;9.424;2023-07-02T04:01:52;100039.72;;;14.75;100.00
8653;BME280;4364;52.426;9.424;2023-07-02T04:04:19;100035.66;;;14.81;100.00
8653;BME280;4364;52.426;9.424;2023-07-02T04:06:46;100032.78;;;14.78;100.00
8653;BME280;4364;52.426;9.424;2023-07-02T04:09:12;100031.97;;;14.77;100.00
8653;BME280;4364;52.426;9.424;2023-07-02T04:11:39;100029.72;;;14.88;100.00
8653;BME280;4364;52.426;9.424;2023-07-02T04:14:05;100037.13;;;14.88;100.00
8653;BME280;4364;52.426;9.424;2023-07-02T04:16:31;100039.22;;;14.82;100.00
8653;BME280;4364;52.426;9.424;2023-07-02T04:18:58;100043.56;;;14.83;100.00
8653;BME280;4364;52.426;9.424;2023-07-02T04:21:25;100046.28;;;14.83;100.00
8653;BME280;4364;52.426;9.424;2023-07-02T04:23:51;100034.72;;;14.86;100.00
8653;BME280;4364;52.426;9.424;2023-07-02T04:26:18;100044.72;;;14.82;100.00
8653;BME280;4364;52.426;9.424;2023-07-02T04:29:05;100049.84;;;14.84;100.00
8653;BME280;4364;52.426;9.424;2023-07-02T04:31:31;100045.97;;;14.85;100.00
8653;BME280;4364;52.426;9.424;2023-07-02T04:33:58;100056.75;;;14.90;100.00
8653;BME280;4364;52.426;9.424;2023-07-02T04:36:25;100049.22;;;14.95;100.00
8653;BME280;4364;52.426;9.424;2023-07-02T04:38:52;100055.97;;;14.89;100.00
8653;BME280;4364;52.426;9.424;2023-07-02T04:41:19;100058.38;;;14.91;100.00
8653;BME280;4364;52.426;9.424;2023-07-02T04:43:45;100056.75;;;14.90;100.00
8653;BME280;4364;52.426;9.424;2023-07-02T04:46:12;100064.34;;;14.84;100.00
8653;BME280;4364;52.426;9.424;2023-07-02T04:48:38;100060.66;;;14.89;100.00
8653;BME280;4364;52.426;9.424;2023-07-02T04:51:05;100070.97;;;14.92;100.00
8653;BME280;4364;52.426;9.424;2023-07-02T04:53:31;100068.22;;;15.09;100.00
8653;BME280;4364;52.426;9.424;2023-07-02T04:55:58;100069.81;;;15.01;100.00
8653;BME280;4364;52.426;9.424;2023-07-02T04:58:24;100077.88;;;14.98;100.00
8653;BME280;4364;52.426;9.424;2023-07-02T05:00:51;100079.00;;;14.97;100.00
8653;BME280;4364;52.426;9.424;2023-07-02T05:03:17;100087.69;;;14.99;100.00
8653;BME280;4364;52.426;9.424;2023-07-02T05:05:44;100087.38;;;14.92;100.00
8653;BME280;4364;52.426;9.424;2023-07-02T05:08:11;100095.41;;;14.88;100.00
8653;BME280;4364;52.426;9.424;2023-07-02T05:10:37;100089.44;;;14.86;100.00
8653;BME280;4364;52.426;9.424;2023-07-02T05:13:04;100087.19;;;14.79;100.00
8653;BME280;4364;52.426;9.424;2023-07-02T05:15:30;100098.44;;;14.78;100.00
8653;BME280;4364;52.426;9.424;2023-07-02T05:17:57;100085.72;;;14.73;100.00
8653;BME280;4364;52.426;9.424;2023-07-02T05:20:23;100086.22;;;14.75;100.00
8653;BME280;4364;52.426;9.424;2023-07-02T05:22:50;100092.19;;;14.77;100.00
8653;BME280;4364;52.426;9.424;2023-07-02T05:25:16;100101.19;;;14.87;100.00
8653;BME280;4364;52.426;9.424;2023-07-02T05:27:43;100096.88;;;14.94;100.00
8653;BME280;4364;52.426;9.424;2023-07-02T05:30:10;100098.47;;;15.13;100.00
8653;BME280;4364;52.426;9.424;2023-07-02T05:32:37;100103.31;;;15.16;100.00
8653;BME280;4364;52.426;9.424;2023-07-02T05:35:05;100102.03;;;15.05;100.00
8653;BME280;4364;52.426;9.424;2023-07-02T05:37:32;100095.44;;;14.97;100.00
8653;BME280;4364;52.426;9.424;2023-07-02T05:39:58;100101.03;;;14.83;100.00
8653;BME280;4364;52.426;9.424;2023-07-02T05:42:25;100104.13;;;14.99;100.00
8653;BME280;4364;52.426;9.424;2023-07-02T05:44:51;100103.66;;;15.14;100.00
8653;BME280;4364;52.426;9.424;2023-07-02T05:47:18;100102.34;;;15.29;100.00
8653;BME280;4364;52.426;9.424;2023-07-02T05:49:44;100110.38;;;15.61;99.08
8653;BME280;4364;52.426;9.424;2023-07-02T05:52:11;100106.31;;;15.84;96.62
8653;BME280;4364;52.426;9.424;2023-07-02T05:54:40;100100.91;;;16.05;92.83
8653;BME280;4364;52.426;9.424;2023-07-02T05:57:07;100104.44;;;16.15;92.72
8653;BME280;4364;52.426;9.424;2023-07-02T05:59:34;100112.38;;;16.46;92.16
8653;BME280;4364;52.426;9.424;2023-07-02T06:02:00;100114.94;;;16.51;87.91
8653;BME280;4364;52.426;9.424;2023-07-02T06:04:27;100130.81;;;16.66;88.86
8653;BME280;4364;52.426;9.424;2023-07-02T06:06:54;100116.50;;;16.82;85.25
8653;BME280;4364;52.426;9.424;2023-07-02T06:09:20;100127.22;;;16.75;85.33
8653;BME280;4364;52.426;9.424;2023-07-02T06:11:47;100129.88;;;16.92;84.97
8653;BME280;4364;52.426;9.424;2023-07-02T06:14:14;100129.34;;;16.99;82.59
8653;BME280;4364;52.426;9.424;2023-07-02T06:16:40;100128.38;;;17.25;81.29
8653;BME280;4364;52.426;9.424;2023-07-02T06:19:08;100129.81;;;17.22;82.83
8653;BME280;4364;52.426;9.424;2023-07-02T06:21:34;100130.44;;;17.28;83.29
8653;BME280;4364;52.426;9.424;2023-07-02T06:24:01;100126.63;;;17.41;80.17
8653;BME280;4364;52.426;9.424;2023-07-02T06:26:28;100129.69;;;17.39;78.90
8653;BME280;4364;52.426;9.424;2023-07-02T06:28:55;100133.41;;;17.22;76.63
8653;BME280;4364;52.426;9.424;2023-07-02T06:31:23;100139.56;;;17.19;74.90
8653;BME280;4364;52.426;9.424;2023-07-02T06:33:49;100133.59;;;17.17;74.49
8653;BME280;4364;52.426;9.424;2023-07-02T06:36:16;100129.50;;;17.23;73.44
8653;BME280;4364;52.426;9.424;2023-07-02T06:38:44;100131.91;;;17.46;72.55
8653;BME280;4364;52.426;9.424;2023-07-02T06:41:10;100137.19;;;17.51;70.48
8653;BME280;4364;52.426;9.424;2023-07-02T06:43:37;100148.19;;;17.51;68.39
8653;BME280;4364;52.426;9.424;2023-07-02T06:46:03;100153.88;;;17.46;67.90
8653;BME280;4364;52.426;9.424;2023-07-02T06:48:30;100144.81;;;17.46;69.37
8653;BME280;4364;52.426;9.424;2023-07-02T06:50:56;100157.75;;;17.66;69.11
8653;BME280;4364;52.426;9.424;2023-07-02T06:53:23;100168.06;;;17.69;69.09
8653;BME280;4364;52.426;9.424;2023-07-02T06:55:49;100158.53;;;17.67;69.91
8653;BME280;4364;52.426;9.424;2023-07-02T06:58:16;100164.69;;;17.51;70.14
8653;BME280;4364;52.426;9.424;2023-07-02T07:00:42;100158.78;;;17.40;72.13
8653;BME280;4364;52.426;9.424;2023-07-02T07:03:09;100168.94;;;17.19;74.46
8653;BME280;4364;52.426;9.424;2023-07-02T07:05:35;100174.59;;;17.22;72.53
8653;BME280;4364;52.426;9.424;2023-07-02T07:08:04;100175.38;;;17.02;74.04
8653;BME280;4364;52.426;9.424;2023-07-02T07:10:30;100177.25;;;17.52;72.15
8653;BME280;4364;52.426;9.424;2023-07-02T07:13:03;100181.16;;;17.51;70.71
8653;BME280;4364;52.426;9.424;2023-07-02T07:15:32;100169.56;;;17.79;70.51
8653;BME280;4364;52.426;9.424;2023-07-02T07:18:01;100174.38;;;17.70;67.92
8653;BME280;4364;52.426;9.424;2023-07-02T07:20:29;100192.75;;;17.78;65.05
8653;BME280;4364;52.426;9.424;2023-07-02T07:22:56;100179.16;;;17.94;64.68
8653;BME280;4364;52.426;9.424;2023-07-02T07:25:23;100188.25;;;17.94;64.17
8653;BME280;4364;52.426;9.424;2023-07-02T07:27:49;100180.22;;;17.89;64.13
8653;BME280;4364;52.426;9.424;2023-07-02T07:30:16;100189.97;;;17.99;63.83
8653;BME280;4364;52.426;9.424;2023-07-02T07:32:50;100179.53;;;17.71;63.02
8653;BME280;4364;52.426;9.424;2023-07-02T07:35:17;100196.50;;;17.94;62.90
8653;BME280;4364;52.426;9.424;2023-07-02T07:37:44;100198.69;;;18.01;61.88
8653;BME280;4364;52.426;9.424;2023-07-02T07:40:11;100199.81;;;18.00;61.34
8653;BME280;4364;52.426;9.424;2023-07-02T07:42:38;100205.84;;;18.27;59.63
8653;BME280;4364;52.426;9.424;2023-07-02T07:45:05;100213.41;;;18.18;57.77
8653;BME280;4364;52.426;9.424;2023-07-02T07:47:31;100213.66;;;18.25;56.49
8653;BME280;4364;52.426;9.424;2023-07-02T07:49:58;100209.34;;;18.61;56.87
8653;BME280;4364;52.426;9.424;2023-07-02T07:52:24;100222.53;;;18.55;56.50
8653;BME280;4364;52.426;9.424;2023-07-02T07:54:51;100209.22;;;18.57;55.85
8653;BME280;4364;52.426;9.424;2023-07-02T07:57:17;100219.22;;;18.49;56.06
8653;BME280;4364;52.426;9.424;2023-07-02T07:59:44;100209.78;;;18.38;56.46
8653;BME280;4364;52.426;9.424;2023-07-02T08:02:10;100210.28;;;18.65;56.78
8653;BME280;4364;52.426;9.424;2023-07-02T08:04:37;100211.28;;;18.73;56.88
8653;BME280;4364;52.426;9.424;2023-07-02T08:07:04;100214.75;;;18.82;57.04
8653;BME280;4364;52.426;9.424;2023-07-02T08:09:31;100215.56;;;18.58;56.66
8653;BME280;4364;52.426;9.424;2023-07-02T08:11:57;100214.56;;;18.17;56.10
8653;BME280;4364;52.426;9.424;2023-07-02T08:14:24;100225.59;;;17.74;55.54
8653;BME280;4364;52.426;9.424;2023-07-02T08:16:50;100234.91;;;17.82;54.73
8653;BME280;4364;52.426;9.424;2023-07-02T08:19:17;100215.56;;;18.12;53.60
8653;BME280;4364;52.426;9.424;2023-07-02T08:21:44;100226.31;;;18.38;52.53
8653;BME280;4364;52.426;9.424;2023-07-02T08:24:10;100217.38;;;18.41;50.63
8653;BME280;4364;52.426;9.424;2023-07-02T08:26:37;100230.53;;;18.36;51.44
8653;BME280;4364;52.426;9.424;2023-07-02T08:29:03;100221.50;;;18.02;52.38
8653;BME280;4364;52.426;9.424;2023-07-02T08:31:30;100229.88;;;18.05;54.99
8653;BME280;4364;52.426;9.424;2023-07-02T08:33:56;100249.47;;;18.04;54.98
8653;BME280;4364;52.426;9.424;2023-07-02T08:36:23;100234.47;;;18.01;53.90
8653;BME280;4364;52.426;9.424;2023-07-02T08:38:49;100225.56;;;18.29;53.67
8653;BME280;4364;52.426;9.424;2023-07-02T08:41:16;100228.44;;;18.20;53.90
8653;BME280;4364;52.426;9.424;2023-07-02T08:43:43;100236.47;;;17.92;54.21
8653;BME280;4364;52.426;9.424;2023-07-02T08:46:09;100242.03;;;17.83;55.14
8653;BME280;4364;52.426;9.424;2023-07-02T08:48:36;100232.56;;;17.72;55.17
8653;BME280;4364;52.426;9.424;2023-07-02T08:51:03;100242.34;;;17.82;55.42
8653;BME280;4364;52.426;9.424;2023-07-02T08:53:29;100253.53;;;18.19;55.41
8653;BME280;4364;52.426;9.424;2023-07-02T08:56:00;100257.03;;;18.52;54.87
8653;BME280;4364;52.426;9.424;2023-07-02T08:58:27;100262.84;;;18.26;53.45
8653;BME280;4364;52.426;9.424;2023-07-02T09:01:04;100261.28;;;18.04;52.74
8653;BME280;4364;52.426;9.424;2023-07-02T09:03:30;100261.91;;;17.89;52.30
8653;BME280;4364;52.426;9.424;2023-07-02T09:05:57;100255.97;;;17.78;53.11
8653;BME280;4364;52.426;9.424;2023-07-02T09:08:27;100264.22;;;17.57;54.48
8653;BME280;4364;52.426;9.424;2023-07-02T09:11:11;100266.50;;;17.55;55.46
8653;BME280;4364;52.426;9.424;2023-07-02T09:13:44;100266.72;;;17.92;55.43
8653;BME280;4364;52.426;9.424;2023-07-02T09:16:30;100278.38;;;18.43;54.17
8653;BME280;4364;52.426;9.424;2023-07-02T09:19:05;100264.63;;;18.56;53.21
8653;BME280;4364;52.426;9.424;2023-07-02T09:21:40;100267.66;;;18.63;51.89
8653;BME280;4364;52.426;9.424;2023-07-02T09:26:47;100275.00;;;19.45;50.78
8653;BME280;4364;52.426;9.424;2023-07-02T09:29:28;100265.84;;;18.92;50.33
8653;BME280;4364;52.426;9.424;2023-07-02T09:32:00;100268.78;;;18.62;50.92
8653;BME280;4364;52.426;9.424;2023-07-02T09:34:34;100267.72;;;18.54;52.51
8653;BME280;4364;52.426;9.424;2023-07-02T09:37:02;100264.41;;;18.61;53.38
8653;BME280;4364;52.426;9.424;2023-07-02T09:39:31;100271.25;;;19.25;50.31
8653;BME280;4364;52.426;9.424;2023-07-02T09:41:59;100272.03;;;19.38;49.37
8653;BME280;4364;52.426;9.424;2023-07-02T09:44:31;100269.50;;;18.71;50.16
8653;BME280;4364;52.426;9.424;2023-07-02T09:47:08;100287.41;;;18.31;51.30
8653;BME280;4364;52.426;9.424;2023-07-02T09:49:37;100282.47;;;18.04;50.36
8653;BME280;4364;52.426;9.424;2023-07-02T09:52:10;100279.38;;;18.39;50.31
8653;BME280;4364;52.426;9.424;2023-07-02T09:54:38;100285.97;;;18.46;49.51
8653;BME280;4364;52.426;9.424;2023-07-02T09:57:05;100294.56;;;18.11;49.53
8653;BME280;4364;52.426;9.424;2023-07-02T09:59:34;100286.69;;;18.22;50.16
8653;BME280;4364;52.426;9.424;2023-07-02T10:02:01;100299.16;;;19.11;49.22
8653;BME280;4364;52.426;9.424;2023-07-02T10:04:39;100280.88;;;19.43;48.93
8653;BME280;4364;52.426;9.424;2023-07-02T10:07:06;100297.53;;;19.35;49.16
8653;BME280;4364;52.426;9.424;2023-07-02T10:09:43;100298.47;;;19.02;48.71
8653;BME280;4364;52.426;9.424;2023-07-02T10:14:47;100297.88;;;19.21;48.41
8653;BME280;4364;52.426;9.424;2023-07-02T10:17:27;100301.09;;;19.11;47.96
8653;BME280;4364;52.426;9.424;2023-07-02T10:19:57;100304.75;;;19.02;48.28
8653;BME280;4364;52.426;9.424;2023-07-02T10:22:24;100312.34;;;19.30;48.55
8653;BME280;4364;52.426;9.424;2023-07-02T10:24:58;100316.25;;;19.29;47.98
8653;BME280;4364;52.426;9.424;2023-07-02T10:27:35;100316.84;;;19.10;47.98
8653;BME280;4364;52.426;9.424;2023-07-02T10:30:04;100334.50;;;19.09;47.05
8653;BME280;4364;52.426;9.424;2023-07-02T10:32:32;100310.28;;;18.90;47.53
8653;BME280;4364;52.426;9.424;2023-07-02T10:35:20;100309.59;;;18.93;48.21
8653;BME280;4364;52.426;9.424;2023-07-02T10:37:47;100310.69;;;18.80;48.53
8653;BME280;4364;52.426;9.424;2023-07-02T10:40:13;100319.22;;;18.54;48.67
8653;BME280;4364;52.426;9.424;2023-07-02T10:42:48;100334.19;;;18.65;50.34
8653;BME280;4364;52.426;9.424;2023-07-02T10:45:15;100319.75;;;18.80;49.42
8653;BME280;4364;52.426;9.424;2023-07-02T10:47:42;100316.84;;;18.98;47.82
8653;BME280;4364;52.426;9.424;2023-07-02T10:52:40;100324.53;;;19.29;47.00
8653;BME280;4364;52.426;9.424;2023-07-02T10:55:07;100314.63;;;19.53;47.67
8653;BME280;4364;52.426;9.424;2023-07-02T10:57:34;100314.13;;;20.16;46.68
8653;BME280;4364;52.426;9.424;2023-07-02T11:00:07;100311.69;;;20.27;46.95
8653;BME280;4364;52.426;9.424;2023-07-02T11:02:36;100320.72;;;20.11;46.94
8653;BME280;4364;52.426;9.424;2023-07-02T11:05:04;100308.84;;;19.83;46.69
8653;BME280;4364;52.426;9.424;2023-07-02T11:07:33;100304.94;;;19.84;47.70
8653;BME280;4364;52.426;9.424;2023-07-02T11:09:59;100316.25;;;20.07;47.82
8653;BME280;4364;52.426;9.424;2023-07-02T11:12:30;100323.00;;;19.69;47.00
8653;BME280;4364;52.426;9.424;2023-07-02T11:15:13;100318.91;;;19.38;46.75
8653;BME280;4364;52.426;9.424;2023-07-02T11:17:41;100322.69;;;19.33;46.65
8653;BME280;4364;52.426;9.424;2023-07-02T11:20:09;100327.97;;;19.26;46.73
8653;BME280;4364;52.426;9.424;2023-07-02T11:22:37;100324.72;;;19.61;46.42
8653;BME280;4364;52.426;9.424;2023-07-02T11:25:15;100337.72;;;19.48;45.99
8653;BME280;4364;52.426;9.424;2023-07-02T11:27:42;100332.91;;;19.20;46.58
8653;BME280;4364;52.426;9.424;2023-07-02T11:30:09;100338.41;;;19.20;47.37
8653;BME280;4364;52.426;9.424;2023-07-02T11:32:53;100334.97;;;19.23;47.64
8653;BME280;4364;52.426;9.424;2023-07-02T11:35:21;100346.00;;;19.36;47.08
8653;BME280;4364;52.426;9.424;2023-07-02T11:37:48;100335.56;;;19.41;46.34
8653;BME280;4364;52.426;9.424;2023-07-02T11:40:19;100334.13;;;19.72;45.81
8653;BME280;4364;52.426;9.424;2023-07-02T11:42:46;100336.22;;;20.16;45.66
8653;BME280;4364;52.426;9.424;2023-07-02T11:45:13;100339.59;;;20.38;45.47
8653;BME280;4364;52.426;9.424;2023-07-02T11:47:39;100330.53;;;20.53;44.99
8653;BME280;4364;52.426;9.424;2023-07-02T11:50:06;100333.69;;;20.23;45.77
8653;BME280;4364;52.426;9.424;2023-07-02T11:52:50;100345.25;;;20.01;45.60
8653;BME280;4364;52.426;9.424;2023-07-02T11:55:16;100340.59;;;19.76;46.83
8653;BME280;4364;52.426;9.424;2023-07-02T11:57:43;100339.09;;;19.54;45.58
8653;BME280;4364;52.426;9.424;2023-07-02T12:00:10;100331.06;;;19.49;45.71
8653;BME280;4364;52.426;9.424;2023-07-02T12:02:37;100334.25;;;19.76;46.25
8653;BME280;4364;52.426;9.424;2023-07-02T12:05:04;100327.25;;;20.19;44.46
8653;BME280;4364;52.426;9.424;2023-07-02T12:07:34;100331.66;;;20.36;44.99
8653;BME280;4364;52.426;9.424;2023-07-02T12:10:01;100341.53;;;20.37;43.31
8653;BME280;4364;52.426;9.424;2023-07-02T12:12:28;100336.13;;;20.69;44.53
8653;BME280;4364;52.426;9.424;2023-07-02T12:14:54;100341.13;;;20.79;45.43
8653;BME280;4364;52.426;9.424;2023-07-02T12:17:21;100337.41;;;21.03;40.56
8653;BME280;4364;52.426;9.424;2023-07-02T12:19:47;100331.09;;;20.59;41.72
8653;BME280;4364;52.426;9.424;2023-07-02T12:22:14;100338.72;;;20.78;42.73
8653;BME280;4364;52.426;9.424;2023-07-02T12:24:44;100349.75;;;20.49;42.31
8653;BME280;4364;52.426;9.424;2023-07-02T12:27:10;100347.06;;;20.37;42.32
8653;BME280;4364;52.426;9.424;2023-07-02T12:29:37;100336.53;;;20.55;43.05
8653;BME280;4364;52.426;9.424;2023-07-02T12:32:04;100343.88;;;20.63;43.41
8653;BME280;4364;52.426;9.424;2023-07-02T12:34:31;100350.09;;;20.32;42.00
8653;BME280;4364;52.426;9.424;2023-07-02T12:36:58;100350.69;;;20.25;42.24
8653;BME280;4364;52.426;9.424;2023-07-02T12:39:24;100348.81;;;20.29;43.49
8653;BME280;4364;52.426;9.424;2023-07-02T12:41:51;100343.94;;;20.10;43.36
8653;BME280;4364;52.426;9.424;2023-07-02T12:44:18;100349.81;;;20.09;44.31
8653;BME280;4364;52.426;9.424;2023-07-02T12:46:44;100359.28;;;19.95;44.35
8653;BME280;4364;52.426;9.424;2023-07-02T12:49:11;100354.84;;;19.78;43.16
8653;BME280;4364;52.426;9.424;2023-07-02T12:51:37;100359.22;;;19.55;42.55
8653;BME280;4364;52.426;9.424;2023-07-02T12:54:04;100368.25;;;19.68;43.30
8653;BME280;4364;52.426;9.424;2023-07-02T12:56:30;100362.97;;;19.62;43.62
8653;BME280;4364;52.426;9.424;2023-07-02T12:58:57;100354.03;;;19.66;43.69
8653;BME280;4364;52.426;9.424;2023-07-02T13:01:24;100360.91;;;19.84;44.79
8653;BME280;4364;52.426;9.424;2023-07-02T13:03:50;100360.56;;;19.86;43.06
8653;BME280;4364;52.426;9.424;2023-07-02T13:06:17;100360.31;;;19.91;42.40
8653;BME280;4364;52.426;9.424;2023-07-02T13:08:44;100371.72;;;19.89;41.62
8653;BME280;4364;52.426;9.424;2023-07-02T13:11:10;100364.31;;;20.06;42.53
8653;BME280;4364;52.426;9.424;2023-07-02T13:13:37;100368.63;;;20.31;42.14
8653;BME280;4364;52.426;9.424;2023-07-02T13:16:03;100373.22;;;20.55;42.20
8653;BME280;4364;52.426;9.424;2023-07-02T13:18:30;100370.72;;;20.50;41.83